Time;durP1;ratioP1;P1;durP2;ratioP2;P2;SDS_P1;SDS_P2;PMS_P1;PMS_P2;Temp;Humidity;BMP_temperature;BMP_pressure;BME280_temperature;BME280_humidity;BME280_pressure;Samples;Min_cycle;Max_cycle;Signal;HPM_P1;HPM_P2
2021/11/08 00:00:52;;;;;;;24.30;13.30;;;;;;;7.47;67.25;98747.79;113411;1193;107631;-71
2021/11/08 00:03:26;;;;;;;25.60;13.80;;;;;;;7.47;67.22;98748.32;113421;1193;98939;-71
2021/11/08 00:05:53;;;;;;;24.10;12.40;;;;;;;7.48;67.08;98749.17;113469;1193;99010;-71
2021/11/08 00:08:22;;;;;;;25.90;13.50;;;;;;;7.46;67.13;98749.27;113582;1193;112542;-69
2021/11/08 00:10:51;;;;;;;25.80;13.70;;;;;;;7.44;67.23;98747.63;113547;1193;98998;-70
2021/11/08 00:13:21;;;;;;;26.40;13.40;;;;;;;7.44;67.44;98750.13;113638;1193;107648;-71
2021/11/08 00:18:31;;;;;;;26.90;13.80;;;;;;;7.44;67.30;98763.87;113469;1196;99002;-70
2021/11/08 00:21:03;;;;;;;27.50;14.50;;;;;;;7.43;67.47;98760.27;113469;1193;112590;-71
2021/11/08 00:23:33;;;;;;;25.70;14.00;;;;;;;7.43;67.32;98763.77;113559;1193;98910;-70
2021/11/08 00:26:04;;;;;;;26.20;13.40;;;;;;;7.42;67.57;98768.20;113701;1193;107487;-71
2021/11/08 00:28:32;;;;;;;25.60;13.60;;;;;;;7.43;67.60;98766.39;113658;1192;98994;-70
2021/11/08 00:31:00;;;;;;;24.70;13.10;;;;;;;7.43;67.49;98768.69;113629;1193;99123;-69
2021/11/08 00:33:28;;;;;;;25.60;13.10;;;;;;;7.44;67.53;98767.58;113626;1192;113628;-68
2021/11/08 00:36:00;;;;;;;25.80;13.30;;;;;;;7.43;67.28;98771.14;113648;1193;98968;-69
2021/11/08 00:38:30;;;;;;;25.80;13.60;;;;;;;7.41;67.43;98771.27;113578;1193;107497;-70
2021/11/08 00:41:02;;;;;;;25.50;13.70;;;;;;;7.40;67.65;98772.09;113722;1193;99004;-69
2021/11/08 00:43:32;;;;;;;22.60;11.40;;;;;;;7.38;67.54;98774.84;113410;1192;99003;-71
2021/11/08 00:46:00;;;;;;;24.10;12.50;;;;;;;7.37;67.60;98774.36;113462;1193;112734;-68
2021/11/08 00:48:32;;;;;;;23.40;11.80;;;;;;;7.37;67.74;98774.58;113499;1193;98902;-69
2021/11/08 00:51:06;;;;;;;24.70;12.60;;;;;;;7.38;67.72;98773.95;113496;1193;108201;-70
2021/11/08 00:53:35;;;;;;;23.60;11.90;;;;;;;7.39;67.92;98770.86;113461;1192;99007;-71
2021/11/08 00:56:09;;;;;;;22.20;10.60;;;;;;;7.40;67.81;98773.86;113477;1193;98232;-70
2021/11/08 00:58:40;;;;;;;23.60;11.70;;;;;;;7.39;67.89;98774.27;113428;1193;112461;-71
2021/11/08 01:01:10;;;;;;;23.60;11.60;;;;;;;7.38;67.91;98780.34;113758;1192;97433;-70
2021/11/08 01:03:44;;;;;;;22.40;10.90;;;;;;;7.38;67.92;98777.85;113399;1193;107498;-70
2021/11/08 01:06:16;;;;;;;23.90;11.70;;;;;;;7.38;67.91;98780.82;113568;1192;98919;-72
2021/11/08 01:08:47;;;;;;;22.70;11.10;;;;;;;7.39;67.98;98782.39;113726;1192;97233;-73
2021/11/08 01:11:16;;;;;;;24.70;11.40;;;;;;;7.38;67.98;98786.11;113449;1193;113478;-70
2021/11/08 01:13:46;;;;;;;24.60;10.70;;;;;;;7.38;67.77;98784.71;113638;1192;98934;-70
2021/11/08 01:16:16;;;;;;;21.90;10.50;;;;;;;7.37;67.87;98781.11;113782;1193;108056;-69
2021/11/08 01:18:45;;;;;;;22.10;10.90;;;;;;;7.35;67.91;98787.73;113566;1193;98998;-70
2021/11/08 01:21:13;;;;;;;23.50;11.40;;;;;;;7.34;68.02;98782.01;113510;1192;96392;-69
2021/11/08 01:23:41;;;;;;;24.20;11.70;;;;;;;7.32;68.10;98786.15;113385;1193;113036;-70
2021/11/08 01:26:11;;;;;;;23.50;11.10;;;;;;;7.33;68.25;98791.23;113483;1193;97548;-70
2021/11/08 01:28:47;;;;;;;21.10;9.90;;;;;;;7.33;68.03;98789.08;113490;1193;107176;-71
2021/11/08 01:31:17;;;;;;;;;;;;;;;7.33;68.02;98789.08;113531;1193;98923;-70
2021/11/08 01:33:50;;;;;;;22.00;10.50;;;;;;;7.32;68.03;98789.54;113549;1193;98908;-70
2021/11/08 01:36:35;;;;;;;21.70;10.10;;;;;;;7.32;68.14;98791.63;113487;1193;112320;-70
2021/11/08 01:39:14;;;;;;;22.00;10.00;;;;;;;7.33;68.16;98787.71;113494;1193;98969;-71
2021/11/08 01:41:46;;;;;;;20.40;10.00;;;;;;;7.33;68.30;98790.36;113434;1193;108236;-71
2021/11/08 01:44:17;;;;;;;21.70;10.30;;;;;;;7.32;68.33;98792.16;113449;1193;99587;-70
2021/11/08 01:46:45;;;;;;;21.90;10.70;;;;;;;7.33;68.24;98795.66;113831;1193;98997;-71
2021/11/08 01:49:13;;;;;;;20.10;9.60;;;;;;;7.33;68.12;98798.30;113473;1193;112527;-71
2021/11/08 01:51:42;;;;;;;22.00;10.20;;;;;;;7.34;68.22;98801.38;113821;1192;99004;-70
2021/11/08 01:54:12;;;;;;;22.00;9.60;;;;;;;7.35;68.16;98800.99;113816;1193;107465;-70
2021/11/08 01:56:42;;;;;;;20.80;10.40;;;;;;;7.37;68.28;98804.39;113846;1192;98994;-71
2021/11/08 01:59:10;;;;;;;23.30;10.80;;;;;;;7.37;68.44;98810.16;113318;1193;98965;-71
2021/11/08 02:01:41;;;;;;;21.30;9.90;;;;;;;7.39;68.49;98810.75;113804;1192;112576;-72
2021/11/08 02:04:09;;;;;;;20.80;10.40;;;;;;;7.40;68.24;98815.65;113697;1192;96341;-70
2021/11/08 02:06:37;;;;;;;21.00;10.80;;;;;;;7.39;68.30;98810.39;113642;1193;107603;-70
2021/11/08 02:09:06;;;;;;;21.70;10.10;;;;;;;7.38;68.49;98811.52;113358;1193;97172;-70
2021/11/08 02:11:36;;;;;;;21.50;10.10;;;;;;;7.38;68.37;98817.37;113444;1193;98909;-71
2021/11/08 02:14:06;;;;;;;20.20;9.50;;;;;;;7.37;68.46;98816.89;113472;1193;112477;-72
2021/11/08 02:16:36;;;;;;;20.70;9.80;;;;;;;7.37;68.48;98817.77;113452;1193;98997;-71
2021/11/08 02:19:07;;;;;;;20.90;9.70;;;;;;;7.37;68.38;98821.81;113532;1193;107422;-70
2021/11/08 02:21:36;;;;;;;21.20;10.30;;;;;;;7.38;68.47;98825.48;113472;1193;99021;-71
2021/11/08 02:24:11;;;;;;;21.80;10.10;;;;;;;7.39;68.53;98827.88;113680;1193;98917;-70
2021/11/08 02:26:44;;;;;;;21.50;9.70;;;;;;;7.39;68.49;98832.98;113800;1192;112283;-71
2021/11/08 02:29:14;;;;;;;19.10;9.10;;;;;;;7.39;68.66;98833.89;113490;1193;98911;-70
2021/11/08 02:31:43;;;;;;;20.80;9.60;;;;;;;7.39;68.48;98832.15;113436;1193;107521;-70
2021/11/08 02:34:12;;;;;;;21.40;9.80;;;;;;;7.38;68.69;98833.42;113505;1193;96448;-70
2021/11/08 02:36:43;;;;;;;20.00;9.10;;;;;;;7.38;68.52;98830.26;113382;1193;99011;-71
2021/11/08 02:39:27;;;;;;;20.70;9.60;;;;;;;7.35;68.52;98831.52;113830;1192;113492;-72
2021/11/08 02:41:57;;;;;;;21.30;9.40;;;;;;;7.32;68.55;98837.66;113878;1192;99001;-70
2021/11/08 02:44:26;;;;;;;19.40;9.00;;;;;;;7.30;68.56;98841.30;113824;1193;107566;-70
2021/11/08 02:46:56;;;;;;;19.60;9.10;;;;;;;7.30;68.74;98844.66;113807;1193;99603;-72
2021/11/08 02:49:30;;;;;;;22.90;10.60;;;;;;;7.29;68.48;98843.32;113860;1193;99007;-70
2021/11/08 02:52:09;;;;;;;19.80;9.20;;;;;;;7.27;68.58;98840.28;113816;1193;112494;-71
2021/11/08 02:54:42;;;;;;;20.60;8.90;;;;;;;7.26;68.83;98843.31;113885;1193;98985;-70
2021/11/08 02:57:12;;;;;;;19.30;9.20;;;;;;;7.25;68.74;98841.29;113682;1192;107498;-68
2021/11/08 02:59:43;;;;;;;20.10;9.40;;;;;;;7.24;68.51;98841.90;113820;1193;98233;-70
2021/11/08 03:02:11;;;;;;;20.10;8.50;;;;;;;7.21;68.57;98842.95;113833;1192;99048;-70
2021/11/08 03:04:42;;;;;;;19.30;8.70;;;;;;;7.20;68.57;98845.33;113785;1192;112487;-67
2021/11/08 03:07:16;;;;;;;19.00;8.80;;;;;;;7.17;68.52;98852.05;113837;1192;97398;-69
2021/11/08 03:09:55;;;;;;;21.10;8.50;;;;;;;7.15;68.45;98856.33;113431;1193;107468;-71
2021/11/08 03:12:29;;;;;;;17.80;8.20;;;;;;;7.11;68.55;98856.39;113769;1192;98892;-72
2021/11/08 03:15:07;;;;;;;18.30;8.30;;;;;;;7.10;68.46;98852.62;113490;1193;98901;-71
2021/11/08 03:17:42;;;;;;;20.30;8.50;;;;;;;7.08;68.45;98856.08;113464;1193;112522;-71
2021/11/08 03:20:17;;;;;;;18.20;8.20;;;;;;;7.07;68.53;98856.34;113528;1193;99035;-69
2021/11/08 03:22:52;;;;;;;18.20;7.60;;;;;;;7.06;68.55;98862.58;113517;1193;107531;-69
2021/11/08 03:25:34;;;;;;;19.60;8.30;;;;;;;7.04;68.61;98871.86;113287;1193;98902;-70
2021/11/08 03:28:08;;;;;;;17.90;7.80;;;;;;;7.02;68.58;98872.13;113455;1192;96463;-71
2021/11/08 03:30:47;;;;;;;17.80;7.00;;;;;;;7.03;68.61;98871.40;113472;1193;112616;-70
2021/11/08 03:33:22;;;;;;;17.30;7.80;;;;;;;7.02;68.64;98873.58;113330;1193;98958;-70
2021/11/08 03:35:51;;;;;;;19.50;8.90;;;;;;;7.03;68.65;98875.27;113482;1192;108182;-70
2021/11/08 03:38:20;;;;;;;21.30;8.30;;;;;;;7.03;68.66;98872.80;113426;1193;98902;-70
2021/11/08 03:40:48;;;;;;;18.90;7.80;;;;;;;7.04;68.69;98876.80;113507;1193;98896;-71
2021/11/08 03:43:20;;;;;;;17.60;8.50;;;;;;;7.05;68.60;98877.40;113428;1192;112539;-72
2021/11/08 03:45:52;;;;;;;19.20;8.00;;;;;;;7.07;68.68;98880.49;113394;1193;99050;-69
2021/11/08 03:48:22;;;;;;;19.80;8.20;;;;;;;7.07;68.73;98879.27;113483;1193;107337;-70
2021/11/08 03:50:55;;;;;;;18.90;8.40;;;;;;;7.06;68.67;98883.55;113393;1193;99032;-72
2021/11/08 03:53:23;;;;;;;21.50;8.70;;;;;;;7.04;68.63;98887.02;113445;1193;97087;-69
2021/11/08 03:55:53;;;;;;;18.90;8.60;;;;;;;7.03;68.71;98885.83;113419;1193;113605;-68
2021/11/08 03:58:24;;;;;;;;;;;;;;;7.02;68.52;98886.23;113432;1193;99007;-70
2021/11/08 04:00:52;;;;;;;18.20;7.40;;;;;;;6.98;68.66;98884.38;113437;1193;107748;-70
2021/11/08 04:03:21;;;;;;;18.20;7.80;;;;;;;6.96;68.50;98883.98;113470;1193;98906;-70
2021/11/08 04:05:49;;;;;;;20.30;9.10;;;;;;;6.95;68.65;98889.30;113495;1193;99012;-69
2021/11/08 04:08:21;;;;;;;20.50;8.70;;;;;;;6.94;68.55;98888.64;113418;1193;111171;-70
2021/11/08 04:10:55;;;;;;;19.00;8.30;;;;;;;6.93;68.60;98890.13;113438;1193;98999;-71
2021/11/08 04:13:32;;;;;;;20.50;8.40;;;;;;;6.91;68.59;98894.13;113830;1193;107645;-71
2021/11/08 04:16:03;;;;;;;17.80;7.80;;;;;;;6.89;68.37;98891.95;113542;1193;98952;-71
2021/11/08 04:18:33;;;;;;;18.40;7.90;;;;;;;6.84;68.41;98886.41;113488;1193;98906;-70
2021/11/08 04:21:05;;;;;;;19.60;8.30;;;;;;;6.81;68.40;98886.09;113478;1193;112258;-71
2021/11/08 04:23:33;;;;;;;19.20;7.50;;;;;;;6.80;68.66;98884.75;113427;1192;97344;-70
2021/11/08 04:26:05;;;;;;;20.70;7.90;;;;;;;6.79;68.49;98885.52;113622;1193;107492;-72
2021/11/08 04:28:35;;;;;;;17.00;7.60;;;;;;;6.77;68.49;98887.71;113471;1192;97453;-70
2021/11/08 04:31:09;;;;;;;18.50;8.40;;;;;;;6.75;68.50;98889.77;113866;1192;98907;-69
2021/11/08 04:33:46;;;;;;;18.20;7.80;;;;;;;6.74;68.42;98894.10;113831;1193;113055;-69
2021/11/08 04:39:18;;;;;;;17.80;8.20;;;;;;;6.69;68.35;98895.27;113826;1192;106531;-70
2021/11/08 04:49:33;;;;;;;18.90;8.30;;;;;;;6.63;68.41;98900.04;113411;1193;99009;-71
2021/11/08 05:22:16;;;;;;;18.30;8.10;;;;;;;6.65;68.50;98919.30;113398;1193;98936;-71
2021/11/08 05:30:07;;;;;;;18.50;7.70;;;;;;;6.66;68.53;98934.19;113302;1193;98841;-70
2021/11/08 05:32:41;;;;;;;18.70;7.70;;;;;;;6.67;68.56;98938.56;113322;1193;107618;-74
2021/11/08 05:35:12;;;;;;;;;;;;;;;6.67;68.69;98939.75;113446;1195;99065;-72
2021/11/08 05:37:44;;;;;;;16.50;7.20;;;;;;;6.66;68.57;98936.34;113361;1193;99037;-72
2021/11/08 05:40:27;;;;;;;19.60;8.30;;;;;;;6.67;68.51;98938.05;113393;1186;112472;-71
2021/11/08 05:43:06;;;;;;;16.40;6.90;;;;;;;6.67;68.51;98945.91;113465;1192;99014;-70
2021/11/08 05:45:41;;;;;;;22.50;8.70;;;;;;;6.67;68.60;98952.47;113430;1193;107591;-70
2021/11/08 05:48:12;;;;;;;17.50;7.40;;;;;;;6.65;68.44;98956.81;113508;1192;99076;-73
2021/11/08 05:50:43;;;;;;;17.90;7.40;;;;;;;6.62;68.35;98962.45;113466;1192;98897;-74
2021/11/08 05:53:13;;;;;;;17.80;7.30;;;;;;;6.60;68.39;98963.30;113461;1192;112457;-72
2021/11/08 06:51:00;;;;;;;16.40;6.70;;;;;;;6.57;68.65;99024.05;113343;1193;98872;-71
2021/11/08 06:53:31;;;;;;;18.20;6.90;;;;;;;6.58;68.58;99027.69;113421;1193;107502;-70
2021/11/08 06:56:00;;;;;;;17.40;6.80;;;;;;;6.61;68.81;99028.08;113442;1193;98981;-71
2021/11/08 06:58:29;;;;;;;14.70;6.90;;;;;;;6.66;68.60;99030.77;113317;1193;99508;-71
2021/11/08 07:00:57;;;;;;;17.60;7.00;;;;;;;6.71;68.70;99032.42;113359;1193;112518;-72
2021/11/08 07:03:25;;;;;;;15.90;6.80;;;;;;;6.77;68.54;99030.87;113456;1193;98965;-70
2021/11/08 07:05:53;;;;;;;16.40;7.30;;;;;;;6.84;68.89;99036.98;113422;1193;107262;-70
2021/11/08 07:08:21;;;;;;;15.80;7.10;;;;;;;6.93;68.68;99037.52;113484;1192;98982;-71
2021/11/08 07:10:49;;;;;;;17.30;7.40;;;;;;;7.01;68.79;99036.86;113393;1193;98923;-72
2021/11/08 07:13:17;;;;;;;18.60;7.70;;;;;;;7.09;68.98;99039.08;113435;1192;112496;-72
2021/11/08 07:15:47;;;;;;;17.00;7.70;;;;;;;7.14;68.74;99040.66;113281;1193;99017;-71
2021/11/08 07:18:16;;;;;;;20.10;7.90;;;;;;;7.21;68.87;99047.35;113335;1192;106241;-71
2021/11/08 07:20:44;;;;;;;18.80;7.30;;;;;;;7.30;68.70;99046.64;113338;1192;98921;-71
2021/11/08 07:23:12;;;;;;;18.20;7.20;;;;;;;7.39;68.62;99047.85;113232;1193;98986;-71
2021/11/08 07:25:40;;;;;;;20.20;7.60;;;;;;;7.46;68.60;99046.57;113385;1193;112512;-71
2021/11/08 07:28:11;;;;;;;14.90;6.20;;;;;;;7.52;68.73;99048.52;113405;1192;97782;-69
2021/11/08 07:30:43;;;;;;;19.40;6.90;;;;;;;7.56;68.77;99050.74;113278;1192;107531;-71
2021/11/08 07:33:17;;;;;;;18.80;7.90;;;;;;;7.59;68.70;99057.40;113405;1192;98965;-71
2021/11/08 07:35:45;;;;;;;;;;;;;;;7.68;68.73;99062.23;113378;1193;99016;-71
2021/11/08 07:38:13;;;;;;;20.00;7.10;;;;;;;7.77;68.95;99061.14;113403;1192;112489;-71
2021/11/08 07:40:41;;;;;;;20.10;7.40;;;;;;;7.85;68.88;99062.18;113482;1192;97132;-70
2021/11/08 07:43:09;;;;;;;16.90;7.00;;;;;;;7.94;68.87;99066.47;113430;1192;107330;-71
2021/11/08 07:45:37;;;;;;;18.60;6.90;;;;;;;8.03;68.79;99070.69;113428;1192;99071;-70
2021/11/08 07:48:06;;;;;;;18.20;6.80;;;;;;;8.11;68.94;99072.64;113477;1192;99065;-70
2021/11/08 07:50:39;;;;;;;16.10;6.60;;;;;;;8.23;68.78;99074.04;113429;1192;112854;-71
2021/11/08 07:53:08;;;;;;;17.40;6.30;;;;;;;8.33;68.85;99077.45;113339;1193;99412;-68
2021/11/08 07:55:38;;;;;;;18.50;6.40;;;;;;;8.44;68.82;99076.76;113350;1193;107686;-70
2021/11/08 07:58:07;;;;;;;15.00;5.60;;;;;;;8.53;68.77;99085.09;113430;1192;98929;-70
2021/11/08 08:00:39;;;;;;;18.40;5.50;;;;;;;8.62;68.71;99091.40;113310;1193;98967;-71
2021/11/08 08:03:08;;;;;;;19.10;5.20;;;;;;;8.68;68.72;99094.23;113417;1195;112526;-71
2021/11/08 08:05:39;;;;;;;17.70;5.00;;;;;;;8.73;68.74;99089.81;113510;1192;99060;-72
2021/11/08 08:08:07;;;;;;;16.50;4.80;;;;;;;8.78;68.73;99094.58;113316;1193;107553;-75
2021/11/08 08:10:35;;;;;;;12.00;4.50;;;;;;;8.81;68.70;99095.82;113384;1192;98904;-72
2021/11/08 08:13:04;;;;;;;14.90;4.30;;;;;;;8.84;68.65;99094.10;113431;1192;98932;-73
2021/11/08 08:15:34;;;;;;;17.10;4.30;;;;;;;8.87;68.63;99100.77;113470;1192;113231;-72
2021/11/08 08:18:04;;;;;;;14.30;4.10;;;;;;;8.88;68.59;99103.89;113472;1192;99626;-71
2021/11/08 08:20:34;;;;;;;12.40;3.90;;;;;;;8.88;68.53;99112.00;113366;1192;107547;-70
2021/11/08 08:23:02;;;;;;;14.40;3.70;;;;;;;8.91;68.58;99116.91;113408;1192;98983;-73
2021/11/08 08:25:30;;;;;;;11.10;4.40;;;;;;;8.94;68.46;99122.38;113423;1193;96428;-73
2021/11/08 08:27:58;;;;;;;13.80;4.60;;;;;;;8.96;68.45;99125.64;113456;1193;113472;-73
2021/11/08 08:30:30;;;;;;;11.10;4.10;;;;;;;8.97;68.39;99125.71;113369;1192;97334;-72
2021/11/08 08:32:58;;;;;;;19.80;4.70;;;;;;;9.04;68.28;99132.22;113371;1193;107503;-74
2021/11/08 08:35:26;;;;;;;13.80;3.90;;;;;;;9.12;68.34;99133.25;113183;1193;98958;-72
2021/11/08 08:37:54;;;;;;;17.20;4.20;;;;;;;9.20;68.36;99135.95;114885;1192;96970;-72
2021/11/08 08:40:23;;;;;;;16.90;5.00;;;;;;;9.25;68.31;99137.58;115023;1192;112974;-73
2021/11/08 08:42:51;;;;;;;15.00;4.50;;;;;;;9.27;68.20;99139.55;114607;1192;97162;-75
2021/11/08 08:45:19;;;;;;;13.70;4.30;;;;;;;9.29;68.04;99139.05;113279;1193;107581;-74
2021/11/08 08:47:47;;;;;;;19.60;4.80;;;;;;;9.31;68.08;99147.05;113167;1193;98935;-74
2021/11/08 08:50:16;;;;;;;11.90;3.70;;;;;;;9.35;67.96;99145.77;113357;1192;99062;-73
2021/11/08 08:52:51;;;;;;;12.00;4.10;;;;;;;9.35;67.97;99147.70;113332;1192;112500;-73
2021/11/08 08:55:23;;;;;;;14.40;4.00;;;;;;;9.35;67.91;99156.16;113201;1192;96541;-75
2021/11/08 08:57:55;;;;;;;13.20;4.10;;;;;;;9.34;67.92;99161.56;113426;1192;107525;-75
2021/11/08 09:00:27;;;;;;;19.30;5.50;;;;;;;9.33;67.79;99160.73;113346;1193;98979;-72
2021/11/08 09:02:59;;;;;;;15.70;4.20;;;;;;;9.34;67.63;99163.34;113269;1193;99022;-73
2021/11/08 09:05:28;;;;;;;14.30;3.80;;;;;;;9.35;67.62;99167.48;113319;1193;112397;-73
2021/11/08 09:07:56;;;;;;;16.30;3.60;;;;;;;9.34;67.44;99162.46;113606;1192;98966;-72
2021/11/08 09:10:31;;;;;;;15.60;4.20;;;;;;;9.32;67.39;99168.44;113453;1181;107500;-72
2021/11/08 09:13:00;;;;;;;15.80;4.60;;;;;;;9.30;67.30;99168.91;113480;1192;99060;-71
2021/11/08 09:15:34;;;;;;;15.10;4.10;;;;;;;9.29;67.29;99172.69;113416;1192;98960;-72
2021/11/08 09:18:07;;;;;;;11.10;3.70;;;;;;;9.30;67.25;99170.33;113345;1192;112519;-70
2021/11/08 09:20:43;;;;;;;17.00;3.70;;;;;;;9.30;67.25;99171.55;113259;1193;96391;-72
2021/11/08 09:23:14;;;;;;;19.80;5.60;;;;;;;9.28;67.09;99172.91;113302;1195;107683;-72
2021/11/08 09:25:49;;;;;;;11.20;4.60;;;;;;;9.27;67.08;99176.21;113380;1193;98989;-72
2021/11/08 09:28:17;;;;;;;15.10;4.40;;;;;;;9.25;67.03;99176.30;113286;1193;97121;-72
2021/11/08 09:30:49;;;;;;;15.40;4.10;;;;;;;9.23;66.94;99178.21;113120;1195;112699;-70
2021/11/08 09:33:22;;;;;;;10.60;3.40;;;;;;;9.21;66.96;99179.21;113352;1193;98932;-71
2021/11/08 09:36:02;;;;;;;12.10;3.50;;;;;;;9.16;66.82;99179.89;113377;1193;105689;-71
2021/11/08 09:38:52;;;;;;;17.00;4.00;;;;;;;9.14;66.69;99172.80;113445;1193;98538;-71
2021/11/08 09:41:40;;;;;;;17.00;4.00;;;;;;;9.12;66.74;99169.55;113464;1192;98939;-71
2021/11/08 09:44:12;;;;;;;18.70;5.40;;;;;;;9.08;66.62;99172.95;113581;1192;112478;-71
2021/11/08 09:46:42;;;;;;;12.40;3.90;;;;;;;9.05;66.43;99173.48;113522;1192;98922;-72
2021/11/08 09:49:13;;;;;;;11.70;3.60;;;;;;;9.02;66.28;99172.86;113498;1192;107424;-71
2021/11/08 09:51:49;;;;;;;11.60;3.40;;;;;;;9.02;66.36;99174.23;113541;1192;98223;-71
2021/11/08 09:54:20;;;;;;;14.70;3.80;;;;;;;9.01;66.19;99167.02;113323;1193;99003;-73
2021/11/08 09:56:49;;;;;;;11.90;3.60;;;;;;;9.01;66.23;99166.33;113277;1193;113614;-70
2021/11/08 09:59:17;;;;;;;12.90;3.40;;;;;;;9.03;66.18;99168.86;113635;1192;98895;-74
2021/11/08 10:01:48;;;;;;;10.30;3.10;;;;;;;9.01;65.97;99169.52;113294;1193;107572;-74
2021/11/08 10:04:16;;;;;;;10.30;2.80;;;;;;;9.01;65.99;99166.51;113267;1193;99019;-74
2021/11/08 10:06:46;;;;;;;15.60;3.00;;;;;;;9.02;65.95;99171.04;113347;1193;98930;-67
2021/11/08 10:09:19;;;;;;;11.90;3.20;;;;;;;9.03;65.76;99171.70;113266;1193;112397;-69
2021/11/08 10:11:50;;;;;;;12.40;3.20;;;;;;;9.05;65.79;99168.18;113270;1193;98844;-69
2021/11/08 10:14:20;;;;;;;11.50;3.20;;;;;;;9.06;65.69;99168.63;113390;1193;107503;-73
2021/11/08 10:16:51;;;;;;;12.10;3.10;;;;;;;9.06;65.68;99173.27;113433;1193;98911;-71
2021/11/08 10:19:23;;;;;;;9.10;2.40;;;;;;;9.08;65.57;99175.10;113473;1192;99014;-73
2021/11/08 10:21:54;;;;;;;8.40;2.80;;;;;;;9.09;65.49;99174.15;113441;1193;112526;-70
2021/11/08 10:24:28;;;;;;;13.00;3.00;;;;;;;9.09;65.27;99170.58;113439;1193;99430;-70
2021/11/08 10:27:01;;;;;;;13.30;3.20;;;;;;;9.06;64.99;99170.06;113330;1192;107526;-70
2021/11/08 10:29:31;;;;;;;11.60;3.50;;;;;;;9.05;64.98;99166.40;113542;1192;99418;-73
2021/11/08 10:32:09;;;;;;;9.70;3.10;;;;;;;9.08;65.01;99164.13;113632;1192;97074;-73
2021/11/08 10:34:56;;;;;;;11.80;3.00;;;;;;;9.10;64.85;99166.48;113509;1192;112335;-73
2021/11/08 10:37:32;;;;;;;11.40;3.20;;;;;;;9.13;64.59;99164.86;113397;1192;98908;-72
2021/11/08 10:40:01;;;;;;;10.70;2.60;;;;;;;9.16;64.75;99162.07;113444;1192;107576;-72
2021/11/08 10:42:58;;;;;;;9.20;2.90;;;;;;;9.17;64.55;99162.48;113435;1193;99606;-73
2021/11/08 10:45:26;;;;;;;11.20;3.20;;;;;;;9.22;64.60;99162.00;113415;1193;98887;-73
2021/11/08 10:48:04;;;;;;;11.00;3.00;;;;;;;9.22;64.46;99155.94;113552;1192;112136;-72
2021/11/08 10:50:41;;;;;;;13.30;3.50;;;;;;;9.27;64.43;99157.98;113592;1192;97809;-70
2021/11/08 10:53:09;;;;;;;15.30;4.30;;;;;;;9.29;64.45;99164.38;113331;1193;107363;-72
2021/11/08 10:55:36;;;;;;;14.80;3.40;;;;;;;9.28;64.23;99160.18;113348;1184;99007;-73
2021/11/08 10:58:11;;;;;;;6.10;2.60;;;;;;;9.25;63.94;99162.29;113305;1193;98988;-72
2021/11/08 11:00:49;;;;;;;13.50;4.10;;;;;;;9.21;63.78;99155.99;113363;1193;112558;-71
2021/11/08 11:03:20;;;;;;;13.00;3.70;;;;;;;9.24;63.89;99162.36;113501;1193;98854;-73
2021/11/08 11:06:14;;;;;;;11.70;3.00;;;;;;;9.28;63.94;99162.88;113458;1192;108317;-71
2021/11/08 11:08:50;;;;;;;;;;;;;;;9.30;63.80;99163.97;113477;1192;98876;-73
2021/11/08 11:11:24;;;;;;;8.60;2.60;;;;;;;9.32;63.76;99161.20;113559;1192;97886;-74
2021/11/08 11:13:53;;;;;;;;;;;;;;;9.38;63.72;99161.83;113546;1192;112522;-71
2021/11/08 11:16:32;;;;;;;13.00;3.40;;;;;;;9.45;63.69;99159.79;113513;1192;98920;-73
2021/11/08 11:19:06;;;;;;;7.80;2.60;;;;;;;9.47;63.53;99159.09;113482;1192;105658;-73
2021/11/08 11:21:37;;;;;;;11.40;3.10;;;;;;;9.46;63.22;99157.39;113586;1192;98972;-72
2021/11/08 11:24:10;;;;;;;10.10;3.30;;;;;;;9.45;63.19;99154.13;113552;1192;99004;-74
2021/11/08 11:26:51;;;;;;;14.10;3.40;;;;;;;9.45;63.03;99161.88;113545;1192;112489;-73
2021/11/08 11:29:28;;;;;;;9.30;2.90;;;;;;;9.42;63.04;99155.36;113557;1192;98959;-73
2021/11/08 11:31:57;;;;;;;8.90;3.40;;;;;;;9.43;63.00;99157.44;113479;1192;107531;-72
2021/11/08 11:34:24;;;;;;;9.70;3.00;;;;;;;9.44;62.85;99158.61;113537;1192;98853;-74
2021/11/08 11:36:52;;;;;;;8.80;3.10;;;;;;;9.43;62.64;99155.46;113657;1192;99572;-73
2021/11/08 11:39:22;;;;;;;9.60;3.00;;;;;;;9.41;62.35;99150.28;113616;1192;111274;-74
2021/11/08 11:41:51;;;;;;;9.70;2.40;;;;;;;9.44;62.55;99149.21;113640;1192;99559;-73
2021/11/08 11:44:24;;;;;;;11.10;2.70;;;;;;;9.51;62.64;99142.55;113627;1192;108709;-72
2021/11/08 11:46:56;;;;;;;8.30;2.60;;;;;;;9.58;62.50;99142.46;113664;1192;97800;-72
2021/11/08 11:49:25;;;;;;;4.90;2.20;;;;;;;9.62;62.37;99142.17;113641;1192;99151;-72
2021/11/08 11:51:59;;;;;;;5.50;2.10;;;;;;;9.64;62.35;99139.58;113609;1192;112622;-71
2021/11/08 11:54:30;;;;;;;7.20;2.20;;;;;;;9.68;62.14;99141.06;113655;1192;97508;-71
2021/11/08 11:57:03;;;;;;;7.20;2.30;;;;;;;9.70;61.90;99140.08;113588;1192;107543;-70
2021/11/08 11:59:44;;;;;;;11.60;2.40;;;;;;;9.71;61.95;99141.42;113629;1192;98899;-71
2021/11/08 12:02:16;;;;;;;11.00;3.00;;;;;;;9.72;61.94;99144.17;113650;1192;98906;-72
2021/11/08 12:04:44;;;;;;;10.10;2.70;;;;;;;9.73;61.93;99145.19;113664;1192;112529;-71
2021/11/08 12:07:15;;;;;;;6.60;2.80;;;;;;;9.76;61.96;99148.70;113674;1192;98979;-70
2021/11/08 12:09:45;;;;;;;10.50;3.30;;;;;;;9.75;61.83;99149.65;113396;1193;107349;-72
2021/11/08 12:12:25;;;;;;;11.30;3.60;;;;;;;9.72;61.67;99154.26;113522;1192;98992;-73
2021/11/08 12:15:08;;;;;;;11.90;3.30;;;;;;;9.71;61.68;99154.67;113629;1192;99105;-72
2021/11/08 12:17:42;;;;;;;9.80;3.40;;;;;;;9.70;61.72;99149.09;113449;1193;111943;-71
2021/11/08 12:20:15;;;;;;;12.10;3.40;;;;;;;9.70;61.73;99151.06;113682;1192;98889;-72
2021/11/08 12:22:46;;;;;;;10.50;3.60;;;;;;;9.68;61.62;99152.20;113641;1192;107531;-71
2021/11/08 12:25:19;;;;;;;9.10;2.80;;;;;;;9.65;61.48;99149.73;113627;1192;96406;-71
2021/11/08 12:27:47;;;;;;;;;;;;;;;9.62;61.42;99153.86;113665;1192;98979;-70
2021/11/08 12:30:29;;;;;;;10.70;3.10;;;;;;;9.58;61.41;99153.27;113461;1193;112547;-71
2021/11/08 12:33:09;;;;;;;11.70;3.60;;;;;;;9.56;61.35;99151.64;113635;1193;98902;-70
2021/11/08 12:35:41;;;;;;;11.80;3.10;;;;;;;9.53;61.27;99156.62;113377;1193;107533;-71
2021/11/08 12:38:33;;;;;;;13.30;4.30;;;;;;;9.47;61.09;99156.26;113403;1193;98956;-71
2021/11/08 12:41:17;;;;;;;13.40;4.00;;;;;;;9.43;61.09;99160.81;113630;1192;96392;-70
2021/11/08 12:43:56;;;;;;;12.90;4.30;;;;;;;9.40;61.05;99163.48;113648;1192;112569;-71
2021/11/08 12:46:33;;;;;;;15.50;4.10;;;;;;;9.39;61.06;99163.88;113409;1193;99001;-70
2021/11/08 12:49:17;;;;;;;14.40;4.50;;;;;;;9.40;61.10;99168.25;113620;1192;107553;-72
2021/11/08 12:52:13;;;;;;;15.90;5.70;;;;;;;9.40;61.11;99164.88;113434;1193;98983;-72
2021/11/08 12:54:50;;;;;;;12.10;4.00;;;;;;;9.38;60.96;99168.05;113694;1192;96505;-71
2021/11/08 12:57:23;;;;;;;15.00;3.40;;;;;;;9.37;61.03;99168.27;113617;1192;111434;-71
2021/11/08 12:59:51;;;;;;;12.00;2.90;;;;;;;9.35;60.87;99170.54;113707;1192;97851;-70
2021/11/08 13:02:23;;;;;;;11.50;3.30;;;;;;;9.33;60.99;99176.16;113610;1192;107549;-69
2021/11/08 13:05:03;;;;;;;12.70;3.30;;;;;;;9.32;60.86;99175.70;113607;1192;98907;-71
2021/11/08 13:07:45;;;;;;;11.90;3.30;;;;;;;9.30;60.76;99174.38;113718;1192;98946;-71
2021/11/08 13:10:31;;;;;;;15.50;3.90;;;;;;;9.27;60.73;99176.55;113680;1193;112493;-72
2021/11/08 13:13:08;;;;;;;12.30;3.50;;;;;;;9.23;60.67;99174.33;113617;1192;99031;-71
2021/11/08 13:15:44;;;;;;;9.30;3.20;;;;;;;9.21;60.71;99174.42;113615;1192;107506;-72
2021/11/08 13:18:12;;;;;;;11.40;3.00;;;;;;;9.19;60.65;99170.48;113662;1192;99031;-71
2021/11/08 13:20:46;;;;;;;10.30;3.30;;;;;;;9.17;60.65;99175.91;113482;1193;98997;-71
2021/11/08 13:23:20;;;;;;;10.80;3.80;;;;;;;9.17;60.62;99176.29;113499;1192;112352;-71
2021/11/08 13:25:55;;;;;;;14.50;3.90;;;;;;;9.16;60.60;99179.70;113694;1192;98923;-72
2021/11/08 13:28:29;;;;;;;15.30;3.70;;;;;;;9.14;60.47;99182.85;113685;1192;107473;-72